createdAt,value
2023-02-14T00:01:15.749Z,41.83
2023-02-14T00:03:43.037Z,28.67
2023-02-14T00:06:13.341Z,46.47
2023-02-14T00:08:43.647Z,80.50
2023-02-14T00:11:11.812Z,40.73
2023-02-14T00:13:39.431Z,72.83
2023-02-14T00:16:07.053Z,67.63
2023-02-14T00:18:53.136Z,76.43
2023-02-14T00:21:21.428Z,65.80
2023-02-14T00:23:49.212Z,41.77
2023-02-14T00:26:17.162Z,56.30
2023-02-14T00:28:45.007Z,49.60
2023-02-14T00:31:13.064Z,40.93
2023-02-14T00:33:41.680Z,53.53
2023-02-14T00:36:11.126Z,55.90
2023-02-14T00:38:39.894Z,37.23
2023-02-14T00:41:07.372Z,49.23
2023-02-14T00:43:34.983Z,49.37
2023-02-14T00:46:02.372Z,51.37
2023-02-14T00:48:31.258Z,58.27
2023-02-14T00:50:58.982Z,62.13
2023-02-14T00:53:26.480Z,58.67
2023-02-14T00:55:53.760Z,48.37
2023-02-14T00:58:21.161Z,43.87
2023-02-14T01:00:48.641Z,50.13
2023-02-14T01:03:16.048Z,39.73
2023-02-14T01:05:43.289Z,40.23
2023-02-14T01:08:10.860Z,38.10
2023-02-14T01:10:38.838Z,30.93
2023-02-14T01:13:06.280Z,32.67
2023-02-14T01:15:34.148Z,30.17
2023-02-14T01:18:01.547Z,29.40
2023-02-14T01:20:28.904Z,27.93
2023-02-14T01:22:56.270Z,25.57
2023-02-14T01:25:23.636Z,27.03
2023-02-14T01:27:51.182Z,27.97
2023-02-14T01:30:18.804Z,25.70
2023-02-14T01:32:46.258Z,27.67
2023-02-14T01:35:13.937Z,27.07
2023-02-14T01:37:41.671Z,27.13
2023-02-14T01:40:10.467Z,27.27
2023-02-14T01:42:38.193Z,28.90
2023-02-14T01:45:10.230Z,26.53
2023-02-14T01:47:40.208Z,29.30
2023-02-14T01:50:13.956Z,31.77
2023-02-14T01:52:52.972Z,32.23
2023-02-14T01:55:22.434Z,32.40
2023-02-14T01:57:59.497Z,32.07
2023-02-14T02:00:45.596Z,36.60
2023-02-14T02:03:14.438Z,32.50
2023-02-14T02:05:44.083Z,34.13
2023-02-14T02:08:11.997Z,33.97
2023-02-14T02:10:39.326Z,27.23
2023-02-14T02:13:08.048Z,22.87
2023-02-14T02:15:39.351Z,25.53
2023-02-14T02:18:15.591Z,27.53
2023-02-14T02:21:01.807Z,25.50
2023-02-14T02:23:35.435Z,23.33
2023-02-14T02:26:21.611Z,23.97
2023-02-14T02:29:07.594Z,24.93
2023-02-14T02:31:53.929Z,30.83
2023-02-14T02:34:40.698Z,33.30
2023-02-14T02:37:08.363Z,32.60
2023-02-14T02:39:48.510Z,46.47
2023-02-14T02:42:15.808Z,32.37
2023-02-14T02:44:43.610Z,36.00
2023-02-14T02:47:20.009Z,56.77
2023-02-14T02:50:09.447Z,37.97
2023-02-14T02:52:59.964Z,38.47
2023-02-14T02:55:51.750Z,46.50
2023-02-14T02:58:20.561Z,46.10
2023-02-14T03:00:49.738Z,38.73
2023-02-14T03:03:36.230Z,31.87
2023-02-14T03:06:03.538Z,32.37
2023-02-14T03:08:30.802Z,33.70
2023-02-14T03:10:58.532Z,32.60
2023-02-14T03:13:32.601Z,36.13
2023-02-14T03:16:06.170Z,34.73
2023-02-14T03:18:40.574Z,33.20
2023-02-14T03:21:10.987Z,34.50
2023-02-14T03:23:58.653Z,30.53
2023-02-14T03:26:34.858Z,33.40
2023-02-14T03:29:08.301Z,28.50
2023-02-14T03:31:48.331Z,32.83
2023-02-14T03:34:34.659Z,36.97
2023-02-14T03:37:04.440Z,34.17
2023-02-14T03:39:55.002Z,38.23
2023-02-14T03:42:26.113Z,49.70
2023-02-14T03:44:55.594Z,32.50
2023-02-14T03:47:25.302Z,34.10
2023-02-14T03:49:56.765Z,39.77
2023-02-14T03:52:25.692Z,47.20
2023-02-14T03:54:54.869Z,43.87
2023-02-14T03:57:27.762Z,38.60
2023-02-14T03:59:56.502Z,33.10
2023-02-14T04:02:34.009Z,46.07
2023-02-14T04:05:03.258Z,35.77
2023-02-14T04:07:31.492Z,60.67
2023-02-14T04:09:59.864Z,38.97
2023-02-14T04:12:37.809Z,53.33
2023-02-14T04:15:06.922Z,35.63
2023-02-14T04:17:53.275Z,33.67
2023-02-14T04:20:22.333Z,36.23
2023-02-14T04:22:51.914Z,38.67
2023-02-14T04:25:20.778Z,37.50
2023-02-14T04:27:49.628Z,34.77
2023-02-14T04:30:18.506Z,35.40
2023-02-14T04:32:46.827Z,34.97
2023-02-14T04:35:14.901Z,36.10
2023-02-14T04:37:43.602Z,38.53
2023-02-14T04:40:11.639Z,37.57
2023-02-14T04:42:39.672Z,39.33
2023-02-14T04:45:07.983Z,38.93
2023-02-14T04:47:36.773Z,36.17
2023-02-14T04:50:05.169Z,38.43
2023-02-14T04:52:33.192Z,34.13
2023-02-14T04:55:01.073Z,34.93
2023-02-14T04:57:28.450Z,29.13
2023-02-14T04:59:55.710Z,33.60
2023-02-14T05:02:23.078Z,29.37
2023-02-14T05:04:53.504Z,33.77
2023-02-14T05:07:20.858Z,36.93
2023-02-14T05:09:49.330Z,32.13
2023-02-14T05:12:17.500Z,51.30
2023-02-14T05:14:45.327Z,43.80
2023-02-14T05:17:13.040Z,35.37
2023-02-14T05:19:40.397Z,31.73
2023-02-14T05:22:07.854Z,51.37
2023-02-14T05:24:35.246Z,44.97
2023-02-14T05:27:02.945Z,42.23
2023-02-14T05:29:30.485Z,39.53
2023-02-14T05:31:57.958Z,39.53
2023-02-14T05:34:26.739Z,34.70
2023-02-14T05:36:55.297Z,39.67
2023-02-14T05:39:22.792Z,44.07
2023-02-14T05:41:50.656Z,31.53
2023-02-14T05:44:18.058Z,34.37
2023-02-14T05:46:45.602Z,38.57
2023-02-14T05:49:12.976Z,40.17
2023-02-14T05:51:40.352Z,39.20
2023-02-14T05:54:09.420Z,44.13
2023-02-14T05:56:38.651Z,46.53
2023-02-14T05:59:06.052Z,41.70
2023-02-14T06:01:33.665Z,35.47
2023-02-14T06:04:02.019Z,39.50
2023-02-14T06:06:29.940Z,37.43
2023-02-14T06:08:57.633Z,36.63
2023-02-14T06:11:25.059Z,37.07
2023-02-14T06:13:52.329Z,36.00
2023-02-14T06:16:19.811Z,40.27
2023-02-14T06:18:47.195Z,38.97
2023-02-14T06:21:14.892Z,34.90
2023-02-14T06:23:42.181Z,51.47
2023-02-14T06:26:09.559Z,37.63
2023-02-14T06:28:36.864Z,38.73
2023-02-14T06:31:04.678Z,39.17
2023-02-14T06:33:32.308Z,37.03
2023-02-14T06:36:00.941Z,54.13
2023-02-14T06:38:28.413Z,52.37
2023-02-14T06:40:55.778Z,52.43
2023-02-14T06:43:23.092Z,42.40
2023-02-14T06:45:50.436Z,39.13
2023-02-14T06:48:18.776Z,62.30
2023-02-14T06:50:47.328Z,48.40
2023-02-14T06:53:14.765Z,57.90
2023-02-14T06:55:43.834Z,45.03
2023-02-14T06:58:11.327Z,37.97
2023-02-14T07:00:39.787Z,48.30
2023-02-14T07:03:07.839Z,53.43
2023-02-14T07:05:35.480Z,51.97
2023-02-14T07:08:02.853Z,39.07
2023-02-14T07:10:30.467Z,31.20
2023-02-14T07:12:57.844Z,48.87
2023-02-14T07:15:25.414Z,48.73
2023-02-14T07:17:52.992Z,39.00
2023-02-14T07:20:20.735Z,43.10
2023-02-14T07:22:48.185Z,42.60
2023-02-14T07:25:15.925Z,48.20
2023-02-14T07:27:43.323Z,42.10
2023-02-14T07:30:11.603Z,42.03
2023-02-14T07:32:39.927Z,48.17
2023-02-14T07:35:07.932Z,36.97
2023-02-14T07:37:36.065Z,40.20
2023-02-14T07:40:08.751Z,42.27
2023-02-14T07:42:40.067Z,40.13
2023-02-14T07:45:20.704Z,36.77
2023-02-14T07:47:50.184Z,31.33
2023-02-14T07:50:18.052Z,41.03
2023-02-14T07:52:46.055Z,41.20
2023-02-14T07:55:13.723Z,45.23
2023-02-14T07:57:41.346Z,42.87
2023-02-14T08:00:09.302Z,44.13
2023-02-14T08:02:37.075Z,50.73
2023-02-14T08:05:05.125Z,46.37
2023-02-14T08:07:33.367Z,43.53
2023-02-14T08:10:01.456Z,39.47
2023-02-14T08:12:47.601Z,37.53
2023-02-14T08:15:34.023Z,34.13
2023-02-14T08:18:01.439Z,29.43
2023-02-14T08:20:28.769Z,31.90
2023-02-14T08:22:56.267Z,40.47
2023-02-14T08:25:23.620Z,45.13
2023-02-14T08:27:50.968Z,41.00
2023-02-14T08:30:18.610Z,40.33
2023-02-14T08:32:46.264Z,36.23
2023-02-14T08:35:15.052Z,34.20
2023-02-14T08:37:42.431Z,37.33
2023-02-14T08:40:10.894Z,32.83
2023-02-14T08:42:38.351Z,32.57
2023-02-14T08:45:05.888Z,35.53
2023-02-14T08:47:38.714Z,33.33
2023-02-14T08:50:07.189Z,32.30
2023-02-14T08:52:34.785Z,32.47
2023-02-14T08:55:02.995Z,32.47
2023-02-14T08:57:30.564Z,34.63
2023-02-14T08:59:57.971Z,33.33
2023-02-14T09:02:25.508Z,36.83
2023-02-14T09:04:52.963Z,32.30
2023-02-14T09:07:21.031Z,34.47
2023-02-14T09:09:48.668Z,32.63
2023-02-14T09:12:16.201Z,35.23
2023-02-14T09:14:44.631Z,32.43
2023-02-14T09:17:12.463Z,36.40
2023-02-14T09:19:40.378Z,33.13
2023-02-14T09:22:09.221Z,38.07
2023-02-14T09:24:38.507Z,32.90
2023-02-14T09:27:06.558Z,37.50
2023-02-14T09:29:34.306Z,36.93
2023-02-14T09:32:02.735Z,37.47
2023-02-14T09:34:30.241Z,38.53
2023-02-14T09:36:57.865Z,37.77
2023-02-14T09:39:26.424Z,41.30
2023-02-14T09:42:13.785Z,40.13
2023-02-14T09:44:44.355Z,42.40
2023-02-14T09:47:31.828Z,41.37
2023-02-14T09:50:00.325Z,43.13
2023-02-14T09:52:29.536Z,43.43
2023-02-14T09:54:59.636Z,51.43
2023-02-14T09:57:27.597Z,48.43
2023-02-14T09:59:55.886Z,46.93
2023-02-14T10:02:32.246Z,48.10
2023-02-14T10:05:27.334Z,49.43
2023-02-14T10:07:55.689Z,52.90
2023-02-14T10:10:31.570Z,50.00
2023-02-14T10:13:18.685Z,49.00
2023-02-14T10:15:47.249Z,48.97
2023-02-14T10:18:18.301Z,49.23
2023-02-14T10:20:47.195Z,48.37
2023-02-14T10:23:27.256Z,50.03
2023-02-14T10:26:02.757Z,51.80
2023-02-14T10:28:38.427Z,49.20
2023-02-14T10:31:23.198Z,44.77
2023-02-14T10:34:26.101Z,47.77
2023-02-14T10:37:02.670Z,42.13
2023-02-14T10:39:30.029Z,34.37
2023-02-14T10:42:06.581Z,33.17
2023-02-14T10:44:45.770Z,25.90
2023-02-14T10:47:27.744Z,27.13
2023-02-14T10:50:09.496Z,25.30
2023-02-14T10:52:59.064Z,26.00
2023-02-14T10:55:38.777Z,23.57
2023-02-14T10:58:07.682Z,23.43
2023-02-14T11:00:40.032Z,23.30
2023-02-14T11:03:09.027Z,19.90
2023-02-14T11:05:46.491Z,22.47
2023-02-14T11:08:17.180Z,23.03
2023-02-14T11:10:44.701Z,23.37
2023-02-14T11:13:29.515Z,21.40
2023-02-14T11:16:00.560Z,21.73
2023-02-14T11:18:33.583Z,18.67
2023-02-14T11:21:04.780Z,20.73
2023-02-14T11:23:40.114Z,20.83
2023-02-14T11:26:25.790Z,21.60
2023-02-14T11:29:04.980Z,20.03
2023-02-14T11:31:35.600Z,19.90
2023-02-14T11:34:05.929Z,21.83
2023-02-14T11:36:39.960Z,20.53
2023-02-14T11:39:21.801Z,20.43
2023-02-14T11:41:49.519Z,20.20
2023-02-14T11:44:22.720Z,21.50
2023-02-14T11:46:53.377Z,19.43
2023-02-14T11:49:28.817Z,17.07
2023-02-14T11:51:59.531Z,19.33
2023-02-14T11:54:32.978Z,20.83
2023-02-14T11:57:06.173Z,19.53
2023-02-14T11:59:36.099Z,17.67
2023-02-14T12:02:05.670Z,19.00
2023-02-14T12:04:38.112Z,20.97
2023-02-14T12:07:27.058Z,21.30
2023-02-14T12:10:06.810Z,20.20
2023-02-14T12:12:35.906Z,19.80
2023-02-14T12:15:22.019Z,18.33
2023-02-14T12:17:51.449Z,18.60
2023-02-14T12:20:24.104Z,21.57
2023-02-14T12:22:56.432Z,19.70
2023-02-14T12:25:26.125Z,17.20
2023-02-14T12:27:53.374Z,17.30
2023-02-14T12:30:23.217Z,17.25
2023-02-14T12:32:51.754Z,16.88
2023-02-14T12:35:31.053Z,17.13
2023-02-14T12:38:04.781Z,17.10
2023-02-14T12:40:44.491Z,14.35
2023-02-14T12:43:18.192Z,15.02
2023-02-14T12:46:01.254Z,14.63
2023-02-14T12:48:34.753Z,16.45
2023-02-14T12:51:02.338Z,13.88
2023-02-14T12:53:36.389Z,13.35
2023-02-14T12:56:03.665Z,13.77
2023-02-14T12:58:41.005Z,14.02
2023-02-14T13:01:09.042Z,15.68
2023-02-14T13:03:39.495Z,15.77
2023-02-14T13:06:19.089Z,15.10
2023-02-14T13:09:01.675Z,13.50
2023-02-14T13:11:36.555Z,12.98
2023-02-14T13:14:22.667Z,14.07
2023-02-14T13:17:08.798Z,12.70
2023-02-14T13:19:45.298Z,12.05
2023-02-14T13:22:16.191Z,11.63
2023-02-14T13:24:44.131Z,11.32
2023-02-14T13:27:15.158Z,10.93
2023-02-14T13:29:47.819Z,7.75
2023-02-14T13:32:17.809Z,9.23
2023-02-14T13:34:47.151Z,5.47
2023-02-14T13:37:15.887Z,5.45
2023-02-14T13:39:44.998Z,5.13
2023-02-14T13:42:12.632Z,3.08
2023-02-14T13:44:42.834Z,9.57
2023-02-14T13:47:22.358Z,1.90
2023-02-14T13:49:51.760Z,1.00
2023-02-14T13:52:37.641Z,1.08
2023-02-14T13:55:07.969Z,1.77
2023-02-14T13:57:41.394Z,2.70
2023-02-14T14:00:18.014Z,3.17
2023-02-14T14:02:46.063Z,4.55
2023-02-14T14:05:43.758Z,3.25
2023-02-14T14:08:23.778Z,2.92
2023-02-14T14:10:55.458Z,2.00
2023-02-14T14:13:41.113Z,3.00
2023-02-14T14:16:28.769Z,3.50
2023-02-14T14:19:08.522Z,3.50
2023-02-14T14:21:36.186Z,3.90
2023-02-14T14:24:22.675Z,2.28
2023-02-14T14:27:02.658Z,2.30
2023-02-14T14:29:35.595Z,2.20
2023-02-14T14:32:32.333Z,2.38
2023-02-14T14:35:01.370Z,2.03
2023-02-14T14:37:33.539Z,1.63
2023-02-14T14:40:03.206Z,1.38
2023-02-14T14:42:33.173Z,1.50
2023-02-14T14:45:02.044Z,1.35
2023-02-14T14:47:32.754Z,1.70
2023-02-14T14:50:04.506Z,4.00
2023-02-14T14:52:37.927Z,2.22
2023-02-14T14:55:07.050Z,2.00
2023-02-14T14:57:36.685Z,1.73
2023-02-14T15:00:19.655Z,1.98
2023-02-14T15:03:01.855Z,1.75
2023-02-14T15:05:32.743Z,2.17
2023-02-14T15:08:13.681Z,2.45
2023-02-14T15:10:41.238Z,2.05
2023-02-14T15:13:30.628Z,1.50
2023-02-14T15:15:58.460Z,1.38
2023-02-14T15:18:25.897Z,1.98
2023-02-14T15:20:53.813Z,1.50
2023-02-14T15:23:23.101Z,1.40
2023-02-14T15:25:50.775Z,4.22
2023-02-14T15:28:28.811Z,4.22
2023-02-14T15:30:57.965Z,5.68
2023-02-14T15:33:25.546Z,7.10
2023-02-14T15:35:53.460Z,7.55
2023-02-14T15:38:22.034Z,7.57
2023-02-14T15:40:49.570Z,7.25
2023-02-14T15:43:25.290Z,6.95
2023-02-14T15:45:58.121Z,6.80
2023-02-14T15:48:29.053Z,8.23
2023-02-14T15:50:59.282Z,6.88
2023-02-14T15:53:27.095Z,7.32
2023-02-14T15:55:55.157Z,9.77
2023-02-14T15:58:24.377Z,10.23
2023-02-14T16:00:52.518Z,8.10
2023-02-14T16:03:21.394Z,10.02
2023-02-14T16:05:49.674Z,10.25
2023-02-14T16:08:23.412Z,13.55
2023-02-14T16:11:03.370Z,14.48
2023-02-14T16:13:32.636Z,15.60
2023-02-14T16:16:07.847Z,16.83
2023-02-14T16:18:38.915Z,15.30
2023-02-14T16:21:28.175Z,15.55
2023-02-14T16:24:09.495Z,16.88
2023-02-14T16:26:47.860Z,16.90
2023-02-14T16:29:17.736Z,17.45
2023-02-14T16:32:14.080Z,17.05
2023-02-14T16:34:37.882Z,17.67
2023-02-14T16:37:20.599Z,18.40
2023-02-14T16:39:48.620Z,17.10
2023-02-14T16:42:19.725Z,16.77
2023-02-14T16:44:47.622Z,24.83
2023-02-14T16:47:15.860Z,24.63
2023-02-14T16:49:43.210Z,28.50
2023-02-14T16:52:23.996Z,26.70
2023-02-14T16:54:51.726Z,28.93
2023-02-14T16:57:21.257Z,26.83
2023-02-14T16:59:49.823Z,29.77
2023-02-14T17:02:19.515Z,33.47
2023-02-14T17:04:48.714Z,36.67
2023-02-14T17:07:16.851Z,33.50
2023-02-14T17:09:49.313Z,31.70
2023-02-14T17:12:20.702Z,26.97
2023-02-14T17:14:53.767Z,33.60
2023-02-14T17:17:21.965Z,31.73
2023-02-14T17:19:52.389Z,29.50
2023-02-14T17:22:20.191Z,27.77
2023-02-14T17:24:47.933Z,29.13
2023-02-14T17:27:15.690Z,29.17
2023-02-14T17:29:42.961Z,30.90
2023-02-14T17:32:13.816Z,28.80
2023-02-14T17:34:41.834Z,29.40
2023-02-14T17:37:09.394Z,28.03
2023-02-14T17:39:36.722Z,28.20
2023-02-14T17:42:04.018Z,32.20
2023-02-14T17:44:35.909Z,29.97
2023-02-14T17:47:04.208Z,30.33
2023-02-14T17:49:31.909Z,29.87
2023-02-14T17:51:59.236Z,28.43
2023-02-14T17:54:26.549Z,27.27
2023-02-14T17:56:53.957Z,23.83
2023-02-14T17:59:21.425Z,24.07
2023-02-14T18:01:49.138Z,23.73
2023-02-14T18:04:16.527Z,25.47
2023-02-14T18:06:44.123Z,25.70
2023-02-14T18:09:11.425Z,24.57
2023-02-14T18:11:40.695Z,30.80
2023-02-14T18:14:08.174Z,64.43
2023-02-14T18:16:38.780Z,51.53
2023-02-14T18:19:07.261Z,41.43
2023-02-14T18:21:36.224Z,29.00
2023-02-14T18:24:04.082Z,71.10
2023-02-14T18:26:31.604Z,77.07
2023-02-14T18:28:59.134Z,52.70
2023-02-14T18:31:26.977Z,50.77
2023-02-14T18:33:55.082Z,38.50
2023-02-14T18:36:25.684Z,27.80
2023-02-14T18:39:01.233Z,26.20
2023-02-14T18:41:29.624Z,29.47
2023-02-14T18:43:57.242Z,30.00
2023-02-14T18:46:26.366Z,27.57
2023-02-14T18:48:53.880Z,27.50
2023-02-14T18:51:22.699Z,30.33
2023-02-14T18:53:54.530Z,28.20
2023-02-14T18:56:23.016Z,30.17
2023-02-14T18:58:52.904Z,29.53
2023-02-14T19:01:25.207Z,31.07
2023-02-14T19:03:54.600Z,29.93
2023-02-14T19:06:23.551Z,29.03
2023-02-14T19:08:51.240Z,30.27
2023-02-14T19:11:31.590Z,29.67
2023-02-14T19:14:00.258Z,30.60
2023-02-14T19:16:32.118Z,31.53
2023-02-14T19:19:02.699Z,37.87
2023-02-14T19:21:34.840Z,37.33
2023-02-14T19:24:08.424Z,37.13
2023-02-14T19:26:39.868Z,38.60
2023-02-14T19:29:09.696Z,36.43
2023-02-14T19:31:38.434Z,42.93
2023-02-14T19:34:06.576Z,45.17
2023-02-14T19:36:36.449Z,40.97
2023-02-14T19:39:04.508Z,40.43
2023-02-14T19:41:34.644Z,37.47
2023-02-14T19:44:03.024Z,37.00
2023-02-14T19:46:30.541Z,36.20
2023-02-14T19:48:58.218Z,31.30
2023-02-14T19:51:27.804Z,34.10
2023-02-14T19:53:55.829Z,30.00
2023-02-14T19:56:24.495Z,31.13
2023-02-14T19:58:52.308Z,30.97
2023-02-14T20:01:25.884Z,30.57
2023-02-14T20:03:53.891Z,29.73
2023-02-14T20:06:23.143Z,32.17
2023-02-14T20:08:50.913Z,31.17
2023-02-14T20:11:30.591Z,29.67
2023-02-14T20:13:58.670Z,25.93
2023-02-14T20:16:27.043Z,30.70
2023-02-14T20:18:55.028Z,31.97
2023-02-14T20:21:28.421Z,30.40
2023-02-14T20:24:01.405Z,33.33
2023-02-14T20:26:33.061Z,32.10
2023-02-14T20:29:01.479Z,33.83
2023-02-14T20:31:28.987Z,42.17
2023-02-14T20:33:56.929Z,45.20
2023-02-14T20:36:24.681Z,38.67
2023-02-14T20:39:02.695Z,39.13
2023-02-14T20:41:30.296Z,36.43
2023-02-14T20:44:04.366Z,50.13
2023-02-14T20:46:32.091Z,60.13
2023-02-14T20:48:59.471Z,54.60
2023-02-14T20:51:27.240Z,51.70
2023-02-14T20:53:54.630Z,35.97
2023-02-14T20:56:24.748Z,32.63
2023-02-14T20:58:52.661Z,38.50
2023-02-14T21:01:24.491Z,35.03
2023-02-14T21:03:52.847Z,35.83
2023-02-14T21:06:21.499Z,32.43
2023-02-14T21:08:49.510Z,32.00
2023-02-14T21:11:18.655Z,291.43
2023-02-14T21:13:46.384Z,135.33
2023-02-14T21:16:15.536Z,43.90
2023-02-14T21:18:48.010Z,39.50
2023-02-14T21:21:16.621Z,38.43
2023-02-14T21:23:43.912Z,38.50
2023-02-14T21:26:11.206Z,38.17
2023-02-14T21:28:38.555Z,42.67
2023-02-14T21:31:07.030Z,39.63
2023-02-14T21:33:34.343Z,41.23
2023-02-14T21:36:07.792Z,34.53
2023-02-14T21:38:35.623Z,40.17
2023-02-14T21:41:04.897Z,41.53
2023-02-14T21:43:36.564Z,44.10
2023-02-14T21:46:05.144Z,43.13
2023-02-14T21:48:51.604Z,39.23
2023-02-14T21:51:19.426Z,40.90
2023-02-14T21:53:47.273Z,40.87
2023-02-14T21:56:18.068Z,37.20
2023-02-14T21:58:45.552Z,36.20
2023-02-14T22:01:17.186Z,37.10
2023-02-14T22:03:44.957Z,41.13
2023-02-14T22:06:13.557Z,66.53
2023-02-14T22:08:41.790Z,43.87
2023-02-14T22:11:16.186Z,45.73
2023-02-14T22:13:44.464Z,33.63
2023-02-14T22:16:13.597Z,30.53
2023-02-14T22:18:42.321Z,31.37
2023-02-14T22:21:11.658Z,32.27
2023-02-14T22:23:39.697Z,33.77
2023-02-14T22:26:23.737Z,32.17
2023-02-14T22:28:53.841Z,28.47
2023-02-14T22:31:21.472Z,34.33
2023-02-14T22:33:49.412Z,28.20
2023-02-14T22:36:16.936Z,28.93
2023-02-14T22:38:44.753Z,43.30
2023-02-14T22:41:16.676Z,63.70
2023-02-14T22:43:44.509Z,31.97
2023-02-14T22:46:13.676Z,45.77
2023-02-14T22:48:41.362Z,31.50
2023-02-14T22:51:13.799Z,28.20
2023-02-14T22:53:41.107Z,28.57
2023-02-14T22:56:16.261Z,26.17
2023-02-14T22:58:44.207Z,27.53
2023-02-14T23:01:19.475Z,34.33
2023-02-14T23:03:46.821Z,34.13
2023-02-14T23:06:14.315Z,30.67
2023-02-14T23:08:42.580Z,30.70
2023-02-14T23:11:11.384Z,27.60
2023-02-14T23:13:57.730Z,27.07
2023-02-14T23:16:44.305Z,27.33
2023-02-14T23:19:37.259Z,27.40
2023-02-14T23:22:06.544Z,27.27
2023-02-14T23:24:34.044Z,25.67
2023-02-14T23:27:01.861Z,25.37
2023-02-14T23:29:29.529Z,26.67
2023-02-14T23:31:56.981Z,25.83
2023-02-14T23:34:31.698Z,28.63
2023-02-14T23:36:58.968Z,25.83
2023-02-14T23:39:26.502Z,30.17
2023-02-14T23:41:54.339Z,25.80
2023-02-14T23:44:22.966Z,28.13
2023-02-14T23:46:52.025Z,25.07
2023-02-14T23:49:19.562Z,26.90
2023-02-14T23:51:49.462Z,26.93
2023-02-14T23:54:17.538Z,28.13
2023-02-14T23:56:46.030Z,24.57
2023-02-14T23:59:14.504Z,25.70
